Weather observations for the past three days for
Fosston, Fosston Municipal Airport
Metric (Imperial)
Date Time (cdt) Wind (kph) Vis. (km) Weather Sky Cond. Temperature (ºC) Relative Humidity Wind Chill (°C) Heat Index (°C) Pressure Precipitation (cm)
Air Dwpt 6 hour altimeter (cm) sea level (mb) 1 hr 3 hr 6 hr
Max. Min.
10 11:15 N 19 G 28 16.09 NULL NULL 7 -8 34% 4 76.73 0.0
10 10:55 N 20 16.09 NULL NULL 5 -7 42% 1 76.73 0.0
10 10:35 N 7 G 26 16.09 NULL NULL 6 -7 39% 5 76.71 0.0
10 10:15 N 19 16.09 NULL NULL 5 -7 42% 2 76.71 0.0
10 09:55 NE 13 16.09 NULL NULL 4 -7 45% 1 76.71 0.0
10 09:35 N 19 16.09 NULL NULL 4 -7 45% 0 76.71 0.0
10 09:15 N 15 16.09 NULL NULL 4 -6 48% 1 76.68 0.0
10 08:55 N 15 16.09 NULL NULL 3 -4 60% -0 76.68 0.0
10 08:35 N 15 16.09 NULL NULL 2 -4 65% -2 76.68 0.0
10 08:15 N 15 16.09 NULL NULL 2 -4 65% -2 76.66 0.0
10 07:55 N 15 16.09 NULL NULL 2 -4 65% -2 76.66 0.0
10 07:35 N 19 16.09 NULL NULL 1 -5 65% -3 76.63 0.0
10 07:15 N 15 16.09 NULL NULL 0 -5 69% -4 76.61 0.0
10 06:55 N 11 16.09 NULL NULL -1 -5 75% -4 76.61 0.0
10 06:35 NW 6 16.09 NULL NULL -2 -5 80% 76.56 0.0
10 06:15 N 6 16.09 NULL NULL -2 -6 74% 76.56 0.0
10 05:55 N 6 16.09 NULL NULL -2 -5 80% 76.53 0.0
10 05:35 N 9 16.09 NULL NULL -2 -5 80% -5 76.5 0.0
10 05:15 N 9 16.09 NULL NULL -2 -5 80% -5 76.5 0.0
10 04:55 N 11 16.09 NULL NULL -1 -4 80% -4 76.48 0.0
10 04:35 N 9 16.09 NULL NULL -1 -4 80% -4 76.45 0.0
10 04:15 N 13 16.09 NULL NULL 1 -4 70% -2 76.43 0.0
10 03:55 N 15 16.09 NULL NULL 2 -3 70% -2 76.43 0.0
10 03:35 N 11 16.09 NULL NULL 2 -3 70% -1 76.4 0.0
10 03:15 N 13 16.09 NULL NULL 2 -3 70% -1 76.4 0.0
10 02:55 N 15 16.09 NULL NULL 2 -3 70% -2 76.38 0.0
10 02:35 N 15 16.09 NULL NULL 3 -3 65% -0 76.35 0.0
10 02:15 N 22 16.09 NULL NULL 3 -3 65% -1 76.35 0.0
10 01:55 N 19 16.09 NULL NULL 4 -3 61% 0 76.33 0.0
10 01:35 N 17 16.09 NULL NULL 5 -3 57% 2 76.3 0.0
10 01:15 N 11 16.09 NULL NULL 5 -3 57% 3 76.28 0.0
10 00:55 N 11 16.09 NULL NULL 6 -4 49% 4 76.28 0.0
10 00:35 NW 9 16.09 NULL NULL 6 -4 49% 4 76.25 0.0
10 00:15 N 11 16.09 NULL NULL 6 -4 49% 4 76.23 0.0
09 23:55 N 6 16.09 NULL NULL 6 -4 49% 76.23 0.0
09 23:35 NE 7 16.09 NULL NULL 6 -4 49% 5 76.2 0.0
09 23:15 N 11 16.09 NULL NULL 6 -4 49% 4 76.23 0.0
09 22:55 N 17 16.09 NULL NULL 6 -4 49% 3 76.2 0.0
09 22:35 N 15 16.09 NULL NULL 7 -4 46% 5 76.2 0.0
09 22:15 N 15 16.09 NULL NULL 7 -4 46% 5 76.17 0.0
09 21:55 N 13 16.09 NULL NULL 7 -4 46% 5 76.17 0.0
09 21:35 N 15 16.09 NULL NULL 7 -5 43% 5 76.15 0.0
09 21:15 N 15 16.09 NULL NULL 8 -6 37% 6 76.12 0.0
09 20:55 N 17 16.09 NULL NULL 8 -6 37% 6 76.1 0.0
09 20:35 N 15 16.09 NULL NULL 8 -6 37% 6 76.07 0.0
09 20:15 N 20 16.09 NULL NULL 8 -6 37% 5 76.07 0.0
09 19:55 N 19 16.09 NULL NULL 9 -7 32% 7 76.05 0.0
09 19:35 N 24 16.09 NULL NULL 9 -7 32% 6 76.05 0.0
09 19:15 N 19 16.09 NULL NULL 9 -7 32% 7 76.05 0.0
09 18:55 NW 22 G 30 16.09 NULL NULL 9 -7 32% 6 76.05 0.0
09 18:35 N 24 G 35 16.09 NULL NULL 10 -7 30% 7 76.02 0.0
09 18:15 N 35 16.09 Breezy NULL 12 -7 26% 76 0.0
09 17:55 N 28 G 37 16.09 NULL NULL 11 -7 28% 76 0.0
09 17:35 N 39 G 48 16.09 Breezy NULL 11 -7 28% 76 0.0
09 17:15 NW 28 G 41 16.09 NULL NULL 11 -7 28% 76 0.0
09 16:55 NW 26 G 50 16.09 NULL NULL 11 -7 28% 75.97 0.0
09 16:35 NW 28 G 43 16.09 NULL NULL 11 -7 28% 75.97 0.0
09 16:15 N 31 G 44 16.09 NULL NULL 11 -7 28% 75.95 0.0
09 15:55 N 35 16.09 Breezy NULL 11 -6 30% 75.95 0.0
09 15:35 NW 33 G 44 16.09 Breezy NULL 11 -6 30% 75.95 0.0
09 15:15 NW 26 G 39 16.09 NULL NULL 12 -6 28% 75.92 0.0
09 14:55 N 28 G 56 16.09 NULL NULL 12 -7 26% 75.92 0.0
09 14:35 N 26 G 48 16.09 NULL NULL 11 -6 30% 75.9 0.0
09 14:15 N 35 G 43 16.09 Breezy NULL 12 -6 28% 75.9 0.0
09 13:55 N 31 G 43 16.09 NULL NULL 11 -6 30% 75.9 0.0
09 13:35 NW 30 G 48 16.09 NULL NULL 11 -6 30% 75.9 0.0
09 13:15 NW 35 G 44 16.09 Breezy NULL 10 -6 32% 7 75.9 0.0
09 12:55 NW 24 G 46 16.09 NULL NULL 10 -6 32% 7 75.9 0.0
09 12:35 NW 22 G 41 16.09 NULL NULL 9 -6 34% 6 75.87 0.0
09 12:15 NW 30 G 39 16.09 NULL NULL 9 -5 37% 6 75.87 0.0
09 11:55 NW 22 G 37 16.09 NULL NULL 9 -6 34% 6 75.87 0.0
09 11:35 N 28 G 39 16.09 NULL NULL 8 -6 37% 4 75.87 0.0
09 11:15 N 30 G 39 16.09 NULL NULL 8 -5 40% 4 75.87 0.0
09 10:55 NW 26 G 35 16.09 NULL NULL 7 -5 43% 3 75.87 0.0
09 10:35 NW 28 G 35 16.09 NULL NULL 8 -4 43% 4 75.84 0.0
09 10:15 N 33 G 43 16.09 Breezy NULL 7 -5 43% 3 75.82 0.0
09 09:55 N 31 G 43 16.09 NULL NULL 7 -4 46% 3 75.82 0.0
09 09:35 NW 24 G 37 16.09 NULL NULL 6 -4 49% 2 75.82 0.0
09 09:15 N 26 16.09 NULL NULL 6 -4 49% 2 75.79 0.0
09 08:55 N 22 G 33 16.09 NULL NULL 5 -3 57% 1 75.77 0.0
09 08:35 N 28 16.09 NULL NULL 4 -3 61% -1 75.77 0.0
09 08:15 N 24 16.09 NULL NULL 4 -3 61% -0 75.74 0.0
09 07:55 N 26 G 31 16.09 NULL NULL 3 -3 65% -2 75.72 0.0
09 07:35 N 20 16.09 NULL NULL 3 -4 60% -1 75.72 0.0
09 07:15 NW 17 16.09 NULL NULL 2 -4 65% -2 75.69 0.0
09 06:55 NW 13 16.09 NULL NULL 2 -4 65% -1 75.64 0.0
09 06:35 NW 13 16.09 NULL NULL 2 -4 65% -1 75.62 0.0
09 06:15 NW 11 16.09 NULL NULL 2 -4 65% -1 75.59 0.0
09 05:55 N 9 16.09 NULL NULL 1 -4 70% -2 75.57 0.0
09 05:35 N 11 16.09 NULL NULL 2 -4 65% -1 75.57 0.0
09 05:15 N 17 16.09 NULL NULL 3 -4 60% -1 75.54 0.0
09 04:55 N 20 16.09 NULL NULL 4 -3 61% 0 75.51 0.0
09 04:35 N 19 16.09 NULL NULL 4 -2 65% 0 75.49 0.0
09 04:15 N 20 16.09 NULL NULL 4 -1 70% 0 75.46 0.0
09 03:55 N 19 16.09 NULL NULL 4 1 81% 0 75.44 0.0
09 03:35 NW 15 16.09 NULL NULL 5 1 76% 2 75.39 0.0
09 03:15 NW 11 16.09 NULL NULL 5 2 81% 3 75.39 0.0
09 02:55 NW 9 16.09 NULL NULL 5 2 81% 3 75.36 0.0
09 02:35 NW 7 16.09 NULL NULL 5 2 81% 4 75.34 0.0
09 02:15 NW 7 16.09 NULL NULL 6 2 76% 5 75.34 0.0
09 01:55 Calm 16.09 NULL NULL 5 2 81% 75.34 0.0
09 01:35 Calm 16.09 NULL NULL 5 3 87% 75.34 0.0
09 01:15 Calm 16.09 NULL NULL 5 3 87% 75.34 0.0
09 00:55 Calm 16.09 NULL NULL 6 3 81% 75.34 0.0
09 00:35 N 7 16.09 Light Drizzle NULL 6 3 81% 5 75.34 0.0
09 00:15 N 15 16.09 Drizzle NULL 6 3 81% 3 75.36 0.0
08 23:55 N 15 16.09 Light Drizzle NULL 6 3 81% 3 75.34 0.0
08 23:35 N 13 16.09 Drizzle NULL 6 3 81% 4 75.36 0.0
08 23:15 N 19 G 35 16.09 Light Rain NULL 7 2 71% 4 75.36 0.0
08 22:55 N 20 16.09 Light Rain NULL 7 2 71% 4 75.36 0.0
08 22:35 N 22 16.09 Light Rain NULL 8 2 66% 5 75.39 0.0
08 22:15 N 24 G 43 16.09 Drizzle NULL 9 1 58% 6 75.31 0.0
08 21:55 NE 20 G 28 16.09 Light Drizzle NULL 11 -4 35% 75.26 0.0
08 21:35 NE 11 16.09 NULL NULL 11 -4 35% 75.21 0.0
08 21:15 NE 7 16.09 NULL NULL 9 -4 40% 8 75.16 0.0
08 20:55 Calm 16.09 NULL NULL 9 -2 46% 75.13 0.0
08 20:35 Calm 16.09 NULL NULL 12 -4 33% 75.13 0.0
08 20:15 Calm 16.09 NULL NULL 13 -4 31% 75.16 0.0
08 19:55 NW 6 16.09 NULL NULL 14 -4 29% 75.16 0.0
08 19:35 NW 9 16.09 NULL NULL 14 -4 29% 75.18 0.0
08 19:15 NW 11 16.09 NULL NULL 14 -4 29% 75.18 0.0
08 18:55 NW 17 16.09 NULL NULL 15 -5 25% 75.21 0.0
08 18:35 NW 24 16.09 NULL NULL 15 -5 25% 75.23 0.0
08 18:15 NW 22 G 35 16.09 NULL NULL 16 -5 23% 75.26 0.0
08 17:55 NW 19 G 46 16.09 NULL NULL 14 -5 27% 75.26 0.0
08 17:35 NW 28 G 43 16.09 NULL NULL 15 -6 23% 75.29 0.0
08 17:15 NW 20 G 43 16.09 NULL NULL 15 -6 23% 75.26 0.0
08 16:55 NW 30 G 43 16.09 NULL NULL 16 -6 22% 75.29 0.0
08 16:35 NW 20 G 35 16.09 NULL NULL 16 -7 20% 75.29 0.0
08 16:15 NW 33 G 44 16.09 Breezy NULL 15 -8 20% 75.29 0.0
08 15:55 NW 31 G 46 16.09 NULL NULL 16 -8 19% 75.26 0.0
08 15:35 NW 31 G 46 16.09 NULL NULL 16 -7 20% 75.26 0.0
08 15:15 NW 28 G 37 16.09 NULL NULL 16 -6 22% 75.26 0.0
08 14:55 NW 28 G 43 16.09 NULL NULL 16 -7 20% 75.26 0.0
08 14:35 W 24 G 43 16.09 NULL NULL 16 -5 23% 75.26 0.0
08 14:15 NW 35 G 48 16.09 Breezy NULL 16 -6 22% 75.26 0.0
08 13:55 NW 28 G 52 16.09 NULL NULL 16 -4 25% 75.26 0.0
08 13:35 W 33 G 46 16.09 Breezy NULL 16 -3 27% 75.23 0.0
08 13:15 NW 35 G 43 16.09 Breezy NULL 15 -4 27% 75.26 0.0
08 12:55 W 28 G 46 16.09 NULL NULL 15 -4 27% 75.26 0.0
08 12:35 W 30 G 43 16.09 NULL NULL 14 -7 23% 75.29 0.0
08 12:15 W 30 G 43 16.09 NULL NULL 16 -7 20% 75.29 0.0
08 11:55 W 26 G 46 16.09 NULL NULL 16 -8 19% 75.29 0.0
08 11:35 W 30 G 46 16.09 NULL NULL 16 -8 19% 75.31 0.0
08 11:15 W 26 G 33 16.09 NULL NULL 15 -9 18% 75.31 0.0
08 10:55 W 26 G 35 16.09 NULL NULL 15 -7 21% 75.34 0.0
08 10:35 W 24 16.09 NULL NULL 14 -7 23% 75.34 0.0
08 10:15 SW 20 G 30 16.09 NULL NULL 13 -7 24% 75.36 0.0
08 09:55 SW 24 16.09 NULL NULL 12 -6 28% 75.39 0.0
08 09:35 SW 17 16.09 NULL NULL 11 -6 30% 75.41 0.0
08 09:15 SW 19 16.09 NULL NULL 10 -6 32% 8 75.41 0.0
08 08:55 SW 19 16.09 NULL NULL 10 -5 35% 8 75.41 0.0
08 08:35 SW 17 16.09 NULL NULL 8 -4 43% 6 75.44 0.0
08 08:15 SW 17 16.09 NULL NULL 7 -4 46% 4 75.46 0.0
08 07:55 SW 11 16.09 NULL NULL 6 -4 49% 4 75.49 0.0
08 07:35 SW 11 16.09 NULL NULL 5 -5 49% 3 75.46 0.0
08 07:15 SW 11 16.09 NULL NULL 4 -5 52% 2 75.46 0.0
08 06:55 S 13 16.09 NULL NULL 3 -4 60% 0 75.46 0.0
08 06:35 S 9 16.09 NULL NULL 1 -5 65% -2 75.46 0.0
08 06:15 SW 6 16.09 NULL NULL 0 -6 64% 75.49 0.0
08 05:55 SW 6 16.09 NULL NULL 0 -7 60% 75.49 0.0
08 05:35 SW 6 16.09 NULL NULL 0 -6 64% 75.49 0.0
08 05:15 S 7 16.09 NULL NULL 0 -7 60% -2 75.49 0.0
08 04:55 S 11 16.09 NULL NULL -1 -7 64% -4 75.49 0.0
08 04:35 S 11 16.09 NULL NULL -1 -7 64% -4 75.51 0.0
08 04:15 S 11 16.09 NULL NULL -1 -7 64% -4 75.51 0.0
08 03:55 S 11 16.09 NULL NULL 0 -7 60% -3 75.54 0.0
08 03:35 S 6 16.09 NULL NULL 0 -7 60% 75.57 0.0
08 03:15 S 6 16.09 NULL NULL 0 -7 60% 75.57 0.0
08 02:55 S 7 16.09 NULL NULL 1 -7 56% -1 75.57 0.0
08 02:35 S 9 16.09 NULL NULL 2 -7 52% -0 75.57 0.0
08 02:15 S 7 16.09 NULL NULL 1 -7 56% -1 75.57 0.0
08 01:55 S 9 16.09 NULL NULL 2 -8 48% -0 75.59 0.0
08 01:35 S 7 16.09 NULL NULL -2 -8 64% -4 75.59 0.0
08 01:15 Calm 16.09 NULL NULL 0 -8 55% 75.59 0.0
08 00:55 Calm 16.09 NULL NULL 1 -7 56% 75.62 0.0
08 00:35 Calm 16.09 NULL NULL 1 -7 56% 75.62 0.0
08 00:15 Calm 16.09 NULL NULL 0 -6 64% 75.62 0.0
07 23:55 Calm 16.09 NULL NULL 1 -7 56% 75.62 0.0
07 23:35 Calm 16.09 NULL NULL 2 -6 56% 75.64 0.0
07 23:15 Calm 16.09 NULL NULL 1 -7 56% 75.64 0.0
07 22:55 E 6 16.09 NULL NULL 5 -8 39% 75.64 0.0
07 22:35 Calm 16.09 NULL NULL 4 -6 48% 75.64 0.0
07 22:15 Calm 16.09 NULL NULL 4 -6 48% 75.67 0.0
07 21:55 Calm 16.09 NULL NULL 5 -7 42% 75.64 0.0
07 21:35 Calm 16.09 NULL NULL 6 -8 36% 75.64 0.0
07 21:15 Calm 16.09 NULL NULL 7 -9 31% 75.64 0.0
07 20:55 Calm 16.09 NULL NULL 8 -8 32% 75.64 0.0
07 20:35 N 9 16.09 NULL NULL 8 -8 32% 7 75.62 0.0
07 20:15 N 9 16.09 NULL NULL 9 -8 29% 8 75.62 0.0
07 19:55 N 13 16.09 NULL NULL 11 -8 26% 75.62 0.0
07 19:35 N 13 16.09 NULL NULL 11 -9 24% 75.62 0.0
07 19:15 N 17 16.09 NULL NULL 12 -8 24% 75.62 0.0
07 18:55 N 20 16.09 NULL NULL 12 -9 22% 75.62 0.0
07 18:35 N 17 16.09 NULL NULL 12 -9 22% 75.62 0.0
07 18:15 NW 22 G 30 16.09 NULL NULL 12 -9 22% 75.62 0.0
07 17:55 N 24 G 33 16.09 NULL NULL 12 -9 22% 75.62 0.0
07 17:35 NW 13 G 33 16.09 NULL NULL 12 -9 22% 75.64 0.0
07 17:15 NW 19 G 35 16.09 NULL NULL 12 -9 22% 75.64 0.0
07 16:55 NW 20 G 43 16.09 NULL NULL 12 -9 22% 75.64 0.0
07 16:35 NW 24 G 31 16.09 NULL NULL 12 -8 24% 75.67 0.0
07 16:15 NW 19 G 33 16.09 NULL NULL 12 -8 24% 75.67 0.0
07 15:55 NW 22 G 30 16.09 NULL NULL 12 -8 24% 75.69 0.0
07 15:35 NW 15 G 35 16.09 NULL NULL 12 -8 24% 75.69 0.0
07 15:15 W 24 G 35 16.09 NULL NULL 12 -8 24% 75.69 0.0
07 14:55 NW 26 G 33 16.09 NULL NULL 12 -8 24% 75.72 0.0
07 14:35 NW 15 G 31 16.09 NULL NULL 10 -8 28% 8 75.72 0.0
07 14:15 W 24 G 39 16.09 NULL NULL 11 -8 26% 75.72 0.0
07 13:55 NW 24 G 41 16.09 NULL NULL 10 -8 28% 7 75.72 0.0
07 13:35 NW 26 G 37 16.09 NULL NULL 11 -8 26% 75.74 0.0
07 13:15 NW 17 G 35 16.09 NULL NULL 10 -8 28% 8 75.74 0.0
07 12:55 W 20 G 33 16.09 NULL NULL 10 -8 28% 8 75.74 0.0
07 12:35 NW 19 G 30 16.09 NULL NULL 9 -8 29% 7 75.77 0.0
07 12:15 NW 19 G 28 16.09 NULL NULL 9 -8 29% 7 75.79 0.0
07 11:55 NW 11 16.09 NULL NULL 8 -8 32% 6 75.79 0.0
07 11:35 NW 19 16.09 NULL NULL 8 -7 34% 5 75.82 0.0
Date Time (cdt) Wind (kph) Vis. (km) Weather Sky Cond. Air Dwpt Max. Min. Relative Humidity Wind Chill (°C) Heat Index (°C) altimeter (cm) sea level (mb) 1 hr 3 hr 6 hr
6 hour
Temperature (ºC) Pressure Precipitation (cm)